Time;durP1;ratioP1;P1;durP2;ratioP2;P2;SDS_P1;SDS_P2;PMS_P1;PMS_P2;Temp;Humidity;BMP_temperature;BMP_pressure;BME280_temperature;BME280_humidity;BME280_pressure;Samples;Min_cycle;Max_cycle;Signal;HPM_P1;HPM_P2
2022/08/24 00:02:23;;;;;;;3.45;2.28;;;;;;;20.74;100.00;101704.22;5049388;28;20025;-74
2022/08/24 00:04:50;;;;;;;5.00;2.10;;;;;;;20.73;100.00;101710.47;5055733;28;20040;-74
2022/08/24 00:07:15;;;;;;;1.80;1.70;;;;;;;20.67;100.00;101702.47;5042400;28;20120;-74
2022/08/24 00:09:41;;;;;;;4.20;2.15;;;;;;;20.64;100.00;101698.03;5036231;28;20057;-75
2022/08/24 00:12:08;;;;;;;3.95;2.28;;;;;;;20.65;100.00;101693.59;5044292;28;20427;-74
2022/08/24 00:14:34;;;;;;;3.17;2.30;;;;;;;20.63;100.00;101693.59;5035947;28;20477;-74
2022/08/24 00:16:59;;;;;;;2.70;2.25;;;;;;;20.70;100.00;101698.00;5039756;28;20040;-74
2022/08/24 00:19:26;;;;;;;2.70;2.10;;;;;;;20.71;100.00;101691.75;5046801;28;20029;-74
2022/08/24 00:21:52;;;;;;;3.33;2.13;;;;;;;20.74;100.00;101698.88;5036461;28;20059;-73
2022/08/24 00:24:19;;;;;;;10.52;2.63;;;;;;;20.72;100.00;101700.66;5035382;28;20081;-74
2022/08/24 00:26:45;;;;;;;3.30;1.92;;;;;;;20.72;100.00;101700.66;5038007;28;20021;-74
2022/08/24 00:29:12;;;;;;;4.07;2.10;;;;;;;20.65;100.00;101704.28;5054145;28;20017;-74
2022/08/24 00:31:37;;;;;;;3.47;2.22;;;;;;;20.61;100.00;101703.41;5053412;28;20052;-73
2022/08/24 00:34:03;;;;;;;5.55;3.75;;;;;;;20.59;100.00;101699.00;5054845;28;20056;-74
2022/08/24 00:36:28;;;;;;;2.88;2.53;;;;;;;20.60;100.00;101700.75;5050606;28;20040;-74
2022/08/24 00:38:54;;;;;;;4.95;3.00;;;;;;;20.59;100.00;101696.31;5034815;28;20489;-74
2022/08/24 00:41:19;;;;;;;5.50;3.60;;;;;;;20.53;100.00;101700.81;5035353;28;20034;-74
2022/08/24 00:44:00;;;;;;;5.53;3.33;;;;;;;20.54;100.00;101697.25;5033678;28;20025;-74
2022/08/24 00:46:32;;;;;;;6.80;3.67;;;;;;;20.55;100.00;101704.38;5051376;28;20128;-75
2022/08/24 00:49:05;;;;;;;4.82;3.42;;;;;;;20.54;100.00;101701.72;5054933;28;20469;-74
2022/08/24 00:51:48;;;;;;;6.40;4.38;;;;;;;20.58;100.00;101699.88;5052773;28;20499;-75
2022/08/24 00:54:17;;;;;;;8.57;4.18;;;;;;;20.56;100.00;101694.56;5054545;28;20036;-74
2022/08/24 00:56:50;;;;;;;9.85;6.00;;;;;;;20.55;100.00;101698.13;5049861;28;20022;-75
2022/08/24 00:59:29;;;;;;;6.75;5.20;;;;;;;20.50;100.00;101697.31;5035495;28;20036;-74
2022/08/24 01:01:57;;;;;;;7.95;5.20;;;;;;;20.44;100.00;101690.22;5040782;28;20021;-74
2022/08/24 01:04:31;;;;;;;11.07;6.95;;;;;;;20.48;100.00;101693.75;5034637;28;20033;-74
2022/08/24 01:06:57;;;;;;;10.55;6.63;;;;;;;20.45;100.00;101691.13;5051401;28;20055;-74
2022/08/24 01:09:22;;;;;;;8.93;5.60;;;;;;;20.44;100.00;101686.69;5051150;28;20115;-74
2022/08/24 01:11:48;;;;;;;9.77;5.95;;;;;;;20.41;100.00;101692.94;5052016;28;20021;-74
2022/08/24 01:14:16;;;;;;;12.45;6.75;;;;;;;20.35;100.00;101691.22;5053167;28;20468;-73
2022/08/24 01:19:35;;;;;;;14.40;10.80;;;;;;;20.37;100.00;101688.53;5051740;28;20063;-73
2022/08/24 01:22:14;;;;;;;13.85;9.95;;;;;;;20.40;100.00;101683.13;5039026;28;20061;-74
2022/08/24 01:24:40;;;;;;;11.43;8.57;;;;;;;20.37;100.00;101685.84;5051821;28;20492;-73
2022/08/24 01:27:09;;;;;;;11.23;8.77;;;;;;;20.34;100.00;101688.56;5066476;28;20051;-74
2022/08/24 01:29:34;;;;;;;13.15;8.43;;;;;;;20.34;100.00;101688.56;5049879;28;20037;-74
2022/08/24 01:32:00;;;;;;;13.88;9.57;;;;;;;20.30;100.00;101697.53;5039792;28;20025;-74
2022/08/24 01:34:26;;;;;;;12.10;9.38;;;;;;;20.32;100.00;101695.72;5040064;28;20032;-73
2022/08/24 01:36:56;;;;;;;19.98;10.35;;;;;;;20.28;100.00;101693.97;5051774;28;20464;-74
2022/08/24 01:39:32;;;;;;;12.52;9.80;;;;;;;20.29;100.00;101703.75;5034047;28;20052;-74
2022/08/24 01:41:58;;;;;;;13.30;10.45;;;;;;;20.32;100.00;101706.41;5033748;28;20034;-73
2022/08/24 01:44:27;;;;;;;17.55;10.75;;;;;;;20.32;100.00;101711.75;5035351;28;20416;-72
2022/08/24 01:46:55;;;;;;;12.77;9.77;;;;;;;20.34;100.00;101707.28;5035714;28;20100;-73
2022/08/24 01:49:24;;;;;;;13.20;9.25;;;;;;;20.38;100.00;101709.03;5052999;28;20079;-74
2022/08/24 01:51:49;;;;;;;15.73;9.15;;;;;;;20.35;100.00;101706.38;5037791;28;20032;-75
2022/08/24 01:54:16;;;;;;;11.57;9.25;;;;;;;20.32;100.00;101706.41;5053576;28;20021;-74
2022/08/24 01:56:42;;;;;;;14.07;8.98;;;;;;;20.32;100.00;101711.75;5051768;28;20481;-74
2022/08/24 01:59:08;;;;;;;16.63;9.38;;;;;;;20.28;100.00;101713.59;5051407;28;20025;-75
2022/08/24 02:01:41;;;;;;;11.85;8.90;;;;;;;20.33;100.00;101706.41;5035709;28;20535;-73
2022/08/24 02:04:07;;;;;;;11.80;8.63;;;;;;;20.39;100.00;101716.16;5052109;28;20032;-74
2022/08/24 02:06:33;;;;;;;11.60;8.10;;;;;;;20.35;100.00;101711.75;5051531;28;20075;-74
2022/08/24 02:08:59;;;;;;;12.85;8.88;;;;;;;20.27;100.00;101717.16;5053033;28;20049;-73
2022/08/24 02:11:26;;;;;;;12.02;9.48;;;;;;;20.19;100.00;101717.22;5039606;28;20053;-73
2022/08/24 02:13:51;;;;;;;13.63;9.70;;;;;;;20.11;100.00;101712.84;5033380;28;20037;-74
2022/08/24 02:16:17;;;;;;;11.63;9.38;;;;;;;20.05;100.00;101713.81;5036042;28;20036;-74
2022/08/24 02:18:43;;;;;;;11.65;9.25;;;;;;;19.98;100.00;101704.06;5035058;28;20037;-75
2022/08/24 02:21:10;;;;;;;16.85;10.02;;;;;;;19.89;100.00;101702.34;5046803;28;20056;-74
2022/08/24 02:23:38;;;;;;;12.45;9.68;;;;;;;19.85;100.00;101704.16;5048651;28;20029;-76
2022/08/24 02:26:05;;;;;;;14.75;10.07;;;;;;;19.84;100.00;101694.38;5051725;28;20029;-75
2022/08/24 02:28:31;;;;;;;13.18;9.38;;;;;;;19.81;100.00;101707.75;5038401;28;20131;-75
2022/08/24 02:30:57;;;;;;;12.10;9.30;;;;;;;19.76;100.00;101706.00;5041172;28;20044;-73
2022/08/24 02:33:23;;;;;;;13.10;9.52;;;;;;;19.70;100.00;101704.25;5039902;28;20037;-74
2022/08/24 02:35:50;;;;;;;13.52;9.40;;;;;;;19.66;100.00;101699.84;5042057;28;20087;-73
2022/08/24 02:38:15;;;;;;;13.00;9.68;;;;;;;19.63;100.00;101707.84;5033740;28;20086;-74
2022/08/24 02:40:41;;;;;;;16.35;10.63;;;;;;;19.62;100.00;101709.66;5045128;28;20029;-75
2022/08/24 02:43:06;;;;;;;14.30;10.00;;;;;;;19.62;100.00;101708.78;5037843;28;20025;-75
2022/08/24 02:45:36;;;;;;;15.10;10.60;;;;;;;19.67;100.00;101712.31;5034687;28;20037;-74
2022/08/24 02:48:02;;;;;;;13.23;10.02;;;;;;;19.65;100.00;101706.06;5042244;28;20051;-76
2022/08/24 02:50:27;;;;;;;15.73;10.52;;;;;;;19.62;100.00;101708.78;5038260;28;20037;-75
2022/08/24 02:52:53;;;;;;;14.40;10.20;;;;;;;19.58;100.00;101705.22;5036442;28;20022;-74
2022/08/24 02:55:18;;;;;;;16.92;10.48;;;;;;;19.63;100.00;101705.19;5044942;28;20024;-75
2022/08/24 02:57:44;;;;;;;18.52;11.20;;;;;;;19.68;100.00;101701.59;5057751;28;20041;-74
2022/08/24 03:00:12;;;;;;;14.93;9.95;;;;;;;19.68;100.00;101714.06;5053126;28;20029;-75
2022/08/24 03:02:38;;;;;;;12.93;10.23;;;;;;;19.65;100.00;101714.09;5056546;28;20020;-74
2022/08/24 03:05:05;;;;;;;13.13;10.50;;;;;;;19.62;100.00;101711.44;5051434;28;20343;-74
2022/08/24 03:07:31;;;;;;;15.32;10.63;;;;;;;19.58;100.00;101713.25;5045566;28;20049;-74
2022/08/24 03:09:56;;;;;;;16.58;9.57;;;;;;;19.56;100.00;101715.06;5051697;28;20109;-73
2022/08/24 03:12:21;;;;;;;12.48;9.00;;;;;;;19.56;100.00;101717.72;5043596;28;20013;-74
2022/08/24 03:14:47;;;;;;;13.95;9.60;;;;;;;19.55;100.00;101714.16;5059151;28;20048;-74
2022/08/24 03:17:12;;;;;;;13.75;8.90;;;;;;;19.60;100.00;101710.56;5036967;28;20025;-74
2022/08/24 03:19:38;;;;;;;13.23;8.27;;;;;;;19.59;100.00;101724.78;5039615;28;20021;-74
2022/08/24 03:22:03;;;;;;;13.10;8.23;;;;;;;19.51;100.00;101716.84;5050206;28;20063;-75
2022/08/24 03:24:28;;;;;;;11.70;8.75;;;;;;;19.45;100.00;101712.44;5050241;28;20568;-74
2022/08/24 03:26:54;;;;;;;11.05;8.07;;;;;;;19.44;100.00;101715.09;5052341;28;20021;-73
2022/08/24 03:29:19;;;;;;;12.30;8.02;;;;;;;19.41;100.00;101710.69;5043589;28;20029;-74
2022/08/24 03:31:45;;;;;;;10.05;6.82;;;;;;;19.37;100.00;101715.16;5049581;28;20111;-74
2022/08/24 03:34:12;;;;;;;11.25;7.35;;;;;;;19.44;100.00;101709.75;5034675;28;20392;-74
2022/08/24 03:36:39;;;;;;;10.85;7.35;;;;;;;19.44;100.00;101710.66;5041879;28;20036;-74
2022/08/24 03:39:05;;;;;;;10.23;7.53;;;;;;;19.57;100.00;101714.13;5041515;28;20060;-74
2022/08/24 03:41:30;;;;;;;8.88;6.65;;;;;;;19.57;100.00;101715.91;5055230;28;20029;-74
2022/08/24 03:43:56;;;;;;;10.50;7.70;;;;;;;19.58;100.00;101723.03;5041202;28;20086;-75
2022/08/24 03:46:27;;;;;;;19.23;7.53;;;;;;;19.55;100.00;101719.47;5055498;28;20465;-75
2022/08/24 03:48:55;;;;;;;10.23;6.47;;;;;;;19.51;100.00;101709.72;5054716;28;20067;-74
2022/08/24 03:51:23;;;;;;;9.90;6.05;;;;;;;19.50;100.00;101710.63;5044832;28;20052;-74
2022/08/24 03:53:50;;;;;;;10.23;6.10;;;;;;;19.49;100.00;101708.88;5050007;28;20392;-73
2022/08/24 03:56:17;;;;;;;8.10;6.00;;;;;;;19.50;100.00;101715.94;5053737;28;20159;-74
2022/08/24 03:58:43;;;;;;;8.57;5.88;;;;;;;19.49;100.00;101711.53;5055103;28;20029;-74
2022/08/24 04:01:09;;;;;;;10.55;7.03;;;;;;;19.53;100.00;101707.94;5053823;28;20051;-75
2022/08/24 04:03:39;;;;;;;9.30;5.88;;;;;;;19.57;100.00;101705.25;5041924;28;20037;-73
2022/08/24 04:06:06;;;;;;;9.32;6.32;;;;;;;19.59;100.00;101714.13;5041909;28;20027;-74
2022/08/24 04:08:33;;;;;;;8.55;5.63;;;;;;;19.61;100.00;101717.66;5043824;28;20053;-74
2022/08/24 04:10:59;;;;;;;7.53;5.85;;;;;;;19.64;100.00;101713.22;5035239;28;20485;-74
2022/08/24 04:13:25;;;;;;;9.35;6.53;;;;;;;19.67;100.00;101718.53;5035233;28;20048;-74
2022/08/24 04:15:51;;;;;;;9.95;7.07;;;;;;;19.69;100.00;101726.50;5049015;28;20028;-76
2022/08/24 04:18:18;;;;;;;11.27;6.63;;;;;;;19.69;100.00;101726.50;5038270;28;20029;-74
2022/08/24 04:20:43;;;;;;;7.93;6.25;;;;;;;19.64;100.00;101725.66;5050852;28;20468;-75
2022/08/24 04:23:10;;;;;;;8.05;6.07;;;;;;;19.63;100.00;101730.13;5039290;28;20036;-75
2022/08/24 04:25:45;;;;;;;9.93;6.28;;;;;;;19.61;100.00;101723.00;5043638;28;20036;-75
2022/08/24 04:28:12;;;;;;;9.75;5.85;;;;;;;19.61;100.00;101717.66;5035012;28;20036;-74
2022/08/24 04:30:40;;;;;;;8.32;6.00;;;;;;;19.59;100.00;101724.78;5038009;28;20035;-74
2022/08/24 04:33:05;;;;;;;11.20;6.95;;;;;;;19.57;100.00;101722.13;5050443;28;20035;-75
2022/08/24 04:35:35;;;;;;;9.32;6.03;;;;;;;19.63;100.00;101721.19;5053711;28;20021;-74
2022/08/24 04:38:00;;;;;;;7.57;5.97;;;;;;;19.62;100.00;101720.31;5048482;28;20045;-74
2022/08/24 04:40:26;;;;;;;7.88;5.15;;;;;;;19.64;100.00;101728.31;5038346;28;20064;-74
2022/08/24 04:42:51;;;;;;;10.68;5.78;;;;;;;19.62;100.00;101727.47;5034949;28;20025;-73
2022/08/24 04:45:16;;;;;;;6.63;5.15;;;;;;;19.61;100.00;101729.22;5048875;28;20048;-75
2022/08/24 04:47:45;;;;;;;10.73;5.85;;;;;;;19.61;100.00;101728.34;5038826;28;20025;-75
2022/08/24 04:50:10;;;;;;;7.28;5.00;;;;;;;19.60;100.00;101730.16;5047206;28;20083;-75
2022/08/24 04:52:36;;;;;;;7.30;5.15;;;;;;;19.59;100.00;101730.13;5034798;28;20033;-75
2022/08/24 04:55:01;;;;;;;8.13;4.75;;;;;;;19.60;100.00;101731.91;5039621;28;20060;-75
2022/08/24 04:57:27;;;;;;;6.63;4.50;;;;;;;19.59;100.00;101731.03;5044312;28;20030;-75
2022/08/24 04:59:56;;;;;;;5.60;4.35;;;;;;;19.60;100.00;101731.91;5039437;28;20072;-76
2022/08/24 05:02:21;;;;;;;9.05;4.50;;;;;;;19.61;100.00;101736.38;5037136;28;20037;-74
2022/08/24 05:04:47;;;;;;;8.88;4.20;;;;;;;19.63;100.00;101743.47;5034275;28;20021;-74
2022/08/24 05:07:12;;;;;;;6.28;4.40;;;;;;;19.67;100.00;101741.69;5032899;28;20140;-74
2022/08/24 05:09:38;;;;;;;5.80;3.65;;;;;;;19.69;100.00;101742.53;5042926;28;20028;-74
2022/08/24 05:12:03;;;;;;;3.67;3.30;;;;;;;19.72;100.00;101745.19;5047445;28;20029;-75
2022/08/24 05:14:29;;;;;;;7.93;3.55;;;;;;;19.76;100.00;101748.72;5051540;28;20033;-74
2022/08/24 05:16:55;;;;;;;6.13;3.53;;;;;;;19.80;100.00;101739.78;5043704;28;20021;-75
2022/08/24 05:19:22;;;;;;;5.53;3.55;;;;;;;19.85;100.00;101744.22;5044689;28;20052;-74
2022/08/24 05:21:47;;;;;;;5.82;3.10;;;;;;;19.91;100.00;101737.06;5042562;28;20442;-74
2022/08/24 05:24:13;;;;;;;6.45;4.10;;;;;;;19.97;100.00;101740.56;5036393;28;20057;-74
2022/08/24 05:26:39;;;;;;;3.92;3.53;;;;;;;20.05;100.00;101745.88;5067922;28;20082;-73
2022/08/24 05:29:05;;;;;;;5.85;3.58;;;;;;;20.13;100.00;101748.44;5037670;28;20502;-73
2022/08/24 05:31:32;;;;;;;7.45;3.30;;;;;;;20.19;100.00;101749.28;5051638;28;20029;-74
2022/08/24 05:33:59;;;;;;;6.18;3.22;;;;;;;20.26;100.00;101750.13;5052189;28;20029;-74
2022/08/24 05:36:29;;;;;;;4.50;3.45;;;;;;;20.31;100.00;101756.31;5034294;28;20026;-74
2022/08/24 05:38:56;;;;;;;7.88;4.40;;;;;;;20.35;100.00;101754.50;5054034;28;20060;-74
2022/08/24 05:41:22;;;;;;;4.25;3.35;;;;;;;20.40;100.00;101747.31;5035906;28;20029;-73
2022/08/24 05:43:47;;;;;;;9.27;3.53;;;;;;;20.44;100.00;101751.72;5046863;28;20032;-73
2022/08/24 05:46:13;;;;;;;4.60;4.03;;;;;;;20.47;100.00;101754.38;5043726;28;20466;-73
2022/08/24 05:48:38;;;;;;;3.92;3.45;;;;;;;20.50;100.00;101745.44;5052424;28;20025;-73
2022/08/24 05:51:05;;;;;;;4.90;3.42;;;;;;;20.52;100.00;101751.66;5038218;28;20438;-72
2022/08/24 05:53:31;;;;;;;5.30;3.47;;;;;;;20.54;100.00;101753.41;5033896;28;20112;-74
2022/08/24 05:55:56;;;;;;;5.03;3.47;;;;;;;20.56;100.00;101748.03;5044083;28;20028;-74
2022/08/24 05:58:22;;;;;;;6.57;4.10;;;;;;;20.60;100.00;101746.22;5049951;28;20033;-74
2022/08/24 06:00:49;;;;;;;5.25;3.60;;;;;;;20.62;100.00;101752.44;5049036;28;20049;-74
2022/08/24 06:03:15;;;;;;;4.60;3.75;;;;;;;20.65;100.00;101747.06;5051644;28;20029;-69
2022/08/24 06:05:41;;;;;;;9.85;3.83;;;;;;;20.68;100.00;101752.38;5053114;28;20037;-73
2022/08/24 06:08:07;;;;;;;9.98;5.03;;;;;;;20.70;100.00;101747.91;5051857;28;20128;-73
2022/08/24 06:10:46;;;;;;;6.05;3.58;;;;;;;20.73;100.00;101745.22;5043217;28;20112;-72
2022/08/24 06:13:13;;;;;;;12.77;5.18;;;;;;;20.77;100.00;101749.63;5034770;28;20451;-73
2022/08/24 06:15:39;;;;;;;12.00;4.55;;;;;;;20.82;100.00;101749.56;5039252;28;20029;-72
2022/08/24 06:18:05;;;;;;;9.27;4.90;;;;;;;20.85;100.00;101754.91;5044121;28;20030;-74
2022/08/24 06:20:32;;;;;;;5.75;4.70;;;;;;;20.92;100.00;101748.56;5042931;28;20021;-71
2022/08/24 06:22:57;;;;;;;6.85;4.28;;;;;;;21.00;100.00;101754.72;5047515;28;20026;-75
2022/08/24 06:28:07;;;;;;;11.02;3.97;;;;;;;21.11;100.00;101754.56;5042743;28;20136;-76
2022/08/24 06:30:33;;;;;;;5.00;3.40;;;;;;;21.20;100.00;101762.50;5049484;28;20468;-76
2022/08/24 06:33:01;;;;;;;5.65;3.90;;;;;;;21.26;100.00;101766.00;5076600;28;20028;-74
2022/08/24 06:35:26;;;;;;;5.95;4.00;;;;;;;21.30;100.00;101765.94;5056518;28;20055;-74
2022/08/24 06:37:51;;;;;;;7.28;3.60;;;;;;;21.37;100.00;101764.06;5040082;28;20480;-74
2022/08/24 06:40:19;;;;;;;7.07;3.78;;;;;;;21.43;100.00;101761.28;5057535;28;20429;-74
2022/08/24 06:42:45;;;;;;;9.50;4.22;;;;;;;21.48;100.00;101759.41;5050204;28;20032;-74
2022/08/24 06:45:10;;;;;;;6.03;3.15;;;;;;;21.55;100.00;101761.16;5056784;28;20029;-75
2022/08/24 06:47:36;;;;;;;11.52;4.15;;;;;;;21.60;100.00;101777.16;5050727;28;20025;-75
2022/08/24 06:50:01;;;;;;;8.48;3.47;;;;;;;21.65;100.00;101766.34;5051415;28;20061;-75
2022/08/24 06:52:27;;;;;;;8.25;3.65;;;;;;;21.70;100.00;101772.53;5048709;28;20017;-75
2022/08/24 06:54:52;;;;;;;7.00;3.10;;;;;;;21.76;100.00;101772.47;5056553;28;20063;-75
2022/08/24 06:57:18;;;;;;;7.70;3.65;;;;;;;21.82;100.00;101772.34;5045144;28;20029;-75
2022/08/24 06:59:43;;;;;;;8.77;3.95;;;;;;;21.88;100.00;101769.59;5041106;28;20503;-75
2022/08/24 07:02:11;;;;;;;7.95;4.22;;;;;;;21.93;100.00;101768.63;5043684;28;20099;-74
2022/08/24 07:04:37;;;;;;;6.97;4.10;;;;;;;21.98;100.00;101770.31;5047576;28;20063;-75
2022/08/24 07:07:02;;;;;;;12.00;3.80;;;;;;;22.03;100.00;101768.44;5054486;28;20430;-75
2022/08/24 07:09:30;;;;;;;5.63;3.60;;;;;;;22.06;100.00;101770.19;5049227;28;20048;-76
2022/08/24 07:11:56;;;;;;;7.70;3.80;;;;;;;22.09;100.00;101775.50;5044062;28;20026;-75
2022/08/24 07:14:21;;;;;;;5.28;3.65;;;;;;;22.18;100.00;101771.78;5037120;28;20079;-75
2022/08/24 07:16:47;;;;;;;10.25;3.58;;;;;;;22.22;100.00;101774.38;5046865;28;20017;-74
2022/08/24 07:19:12;;;;;;;7.13;3.55;;;;;;;22.31;100.00;101775.13;5042303;28;20045;-73
2022/08/24 07:21:38;;;;;;;9.32;3.60;;;;;;;22.36;100.00;101784.03;5066294;28;20036;-72
2022/08/24 07:24:05;;;;;;;5.88;3.40;;;;;;;22.38;100.00;101783.09;5063683;28;20112;-73
2022/08/24 07:26:31;;;;;;;7.30;3.40;;;;;;;22.44;100.00;101786.56;5058326;28;20100;-74
2022/08/24 07:29:04;;;;;;;8.65;3.53;;;;;;;22.49;100.00;101784.66;5039913;28;20057;-73
2022/08/24 07:31:35;;;;;;;5.90;2.97;;;;;;;22.55;100.00;101787.25;5043594;28;20385;-74
2022/08/24 07:34:00;;;;;;;4.53;2.38;;;;;;;22.62;100.00;101788.03;5037181;28;20029;-74
2022/08/24 07:36:25;;;;;;;6.00;2.97;;;;;;;22.69;100.00;101792.34;5047924;28;20028;-75
2022/08/24 07:38:52;;;;;;;3.83;2.35;;;;;;;22.77;100.00;101795.78;5055388;28;20028;-74
2022/08/24 07:41:18;;;;;;;6.18;2.50;;;;;;;22.85;100.00;101793.81;5057718;28;20020;-74
2022/08/24 07:43:48;;;;;;;5.45;2.08;;;;;;;22.95;100.00;101799.00;5045692;28;20495;-75
2022/08/24 07:46:13;;;;;;;4.80;1.90;;;;;;;22.99;100.00;101809.69;5036624;28;20029;-75
2022/08/24 07:48:38;;;;;;;6.13;2.30;;;;;;;23.04;100.00;101798.81;5048291;28;20041;-73
2022/08/24 07:51:09;;;;;;;4.10;1.83;;;;;;;23.12;100.00;101802.25;5042272;28;20488;-74
2022/08/24 07:53:35;;;;;;;2.88;1.83;;;;;;;23.16;100.00;101803.09;5056982;28;20024;-74
2022/08/24 07:56:01;;;;;;;1.77;1.25;;;;;;;23.22;100.00;101802.97;5057541;28;20035;-75
2022/08/24 07:58:26;;;;;;;1.98;1.45;;;;;;;23.28;100.00;101801.94;5058228;28;20029;-74
2022/08/24 08:00:52;;;;;;;1.58;1.48;;;;;;;23.33;100.00;101800.03;5066206;28;20088;-74
2022/08/24 08:03:17;;;;;;;2.70;1.60;;;;;;;23.36;100.00;101806.25;5054324;28;20488;-74
2022/08/24 08:05:43;;;;;;;2.53;1.58;;;;;;;23.48;100.00;101813.16;5051284;28;20029;-73
2022/08/24 08:08:08;;;;;;;3.08;1.50;;;;;;;23.54;100.00;101815.69;5068326;28;20127;-74
2022/08/24 08:10:36;;;;;;;3.53;1.70;;;;;;;23.63;100.00;101814.63;5041407;28;20026;-74
2022/08/24 08:13:04;;;;;;;5.25;1.80;;;;;;;23.67;100.00;101813.63;5051477;28;20052;-74
2022/08/24 08:15:30;;;;;;;1.10;0.98;;;;;;;23.75;100.00;101818.81;5045386;28;20025;-73
2022/08/24 08:17:56;;;;;;;2.13;1.40;;;;;;;23.84;100.00;101815.91;5034530;28;20029;-70
2022/08/24 08:20:21;;;;;;;4.82;1.65;;;;;;;23.92;100.00;101823.84;5036386;28;20031;-70
2022/08/24 08:25:31;;;;;;;6.78;1.50;;;;;;;24.07;100.00;101822.59;5042968;28;20036;-74
2022/08/24 08:27:56;;;;;;;2.90;1.77;;;;;;;24.18;100.00;101827.69;5053078;28;20020;-73
2022/08/24 08:30:23;;;;;;;1.65;1.20;;;;;;;24.28;100.00;101828.34;5038643;28;20021;-74
2022/08/24 08:32:48;;;;;;;3.83;1.60;;;;;;;24.36;100.00;101834.41;5051858;28;20464;-73
2022/08/24 08:35:14;;;;;;;3.83;1.45;;;;;;;24.45;100.00;101830.63;5054671;28;20108;-75
2022/08/24 08:37:39;;;;;;;1.48;1.10;;;;;;;24.49;100.00;101825.09;5038948;28;20124;-74
2022/08/24 08:40:08;;;;;;;1.60;0.80;;;;;;;24.57;100.00;101824.91;5047306;28;20988;-71
2022/08/24 08:42:57;;;;;;;2.90;1.00;;;;;;;24.68;100.00;101832.75;5042269;28;20033;-74
2022/08/24 08:45:34;;;;;;;0.73;0.70;;;;;;;24.75;100.00;101824.44;5041736;28;20082;-74
2022/08/24 08:48:19;;;;;;;0.88;0.77;;;;;;;24.81;100.00;101839.56;5043699;28;20036;-75
2022/08/24 08:51:06;;;;;;;1.98;0.75;;;;;;;24.89;100.00;101836.63;5036974;28;20111;-74
2022/08/24 08:54:02;;;;;;;1.15;0.90;;;;;;;24.95;100.00;101833.78;5067689;28;20350;-75
2022/08/24 08:56:39;;;;;;;2.55;0.90;;;;;;;24.98;100.00;101830.13;5036796;28;20052;-74
2022/08/24 08:59:23;;;;;;;3.95;1.00;;;;;;;25.11;100.00;101825.25;5036471;28;20169;-74
2022/08/24 09:02:16;;;;;;;2.80;0.95;;;;;;;25.24;100.00;101827.56;5037550;28;20060;-75
2022/08/24 09:05:11;;;;;;;1.53;1.00;;;;;;;25.38;100.00;101832.59;5051171;28;20044;-75
2022/08/24 09:07:51;;;;;;;3.25;0.60;;;;;;;25.46;100.00;101832.38;5039128;28;20288;-74
2022/08/24 09:10:22;;;;;;;5.88;1.00;;;;;;;25.55;100.00;101834.75;5036990;28;20024;-74
2022/08/24 09:12:57;;;;;;;1.65;0.70;;;;;;;25.52;100.00;101832.16;5056038;28;20028;-74
2022/08/24 09:15:46;;;;;;;1.30;0.63;;;;;;;25.68;100.00;101843.34;5047231;28;20071;-74
2022/08/24 09:18:34;;;;;;;1.95;0.60;;;;;;;25.86;100.00;101846.41;5062835;28;20470;-74
2022/08/24 09:21:12;;;;;;;3.15;0.80;;;;;;;25.98;100.00;101845.13;5042370;28;20104;-74
2022/08/24 09:23:59;;;;;;;0.63;0.52;;;;;;;26.11;100.00;101843.81;5039421;28;20040;-74
2022/08/24 09:27:06;;;;;;;0.75;0.60;;;;;;;26.24;100.00;101836.22;5070088;28;20024;-73
2022/08/24 09:29:37;;;;;;;2.25;0.60;;;;;;;26.34;100.00;101840.34;5027700;28;20045;-74
2022/08/24 09:32:36;;;;;;;0.88;0.70;;;;;;;26.45;100.00;101840.00;5035492;28;20030;-74
2022/08/24 09:35:04;;;;;;;2.15;0.70;;;;;;;26.50;100.00;101840.72;5046860;28;20046;-74
2022/08/24 09:38:04;;;;;;;0.75;0.60;;;;;;;26.56;100.00;101842.31;5065085;28;20033;-72
2022/08/24 09:40:41;;;;;;;3.70;0.80;;;;;;;26.64;100.00;101845.63;5043900;28;20041;-71
2022/08/24 09:43:23;;;;;;;2.05;0.75;;;;;;;26.73;100.00;101844.47;5042579;28;20021;-72
2022/08/24 09:46:10;;;;;;;2.90;0.90;;;;;;;26.70;100.00;101841.84;5042703;28;20034;-73
2022/08/24 09:48:51;;;;;;;1.73;0.80;;;;;;;26.89;100.00;101842.97;5051516;28;20108;-74
2022/08/24 09:51:47;;;;;;;1.08;0.80;;;;;;;27.12;100.00;101843.06;5038567;28;20037;-75
2022/08/24 09:54:37;;;;;;;2.95;0.85;;;;;;;27.30;100.00;101839.69;5036831;28;20029;-75
2022/08/24 09:57:24;;;;;;;2.92;0.80;;;;;;;27.55;100.00;101838.75;5039729;28;20036;-76
2022/08/24 10:00:12;;;;;;;3.38;0.80;;;;;;;27.40;100.00;101837.53;5038653;28;20030;-75
2022/08/24 10:02:55;;;;;;;1.10;0.68;;;;;;;27.53;100.00;101838.81;5037472;28;20199;-76
2022/08/24 10:05:30;;;;;;;1.75;0.60;;;;;;;27.73;100.00;101831.78;5063368;28;20130;-76
2022/08/24 10:08:17;;;;;;;1.13;0.65;;;;;;;27.86;100.00;101843.84;5045532;28;20381;-75
2022/08/24 10:11:07;;;;;;;1.38;0.85;;;;;;;27.89;99.38;101832.91;5049584;28;20017;-75
2022/08/24 10:13:47;;;;;;;1.42;0.80;;;;;;;28.09;98.45;101836.63;5053714;28;20060;-76
2022/08/24 10:16:32;;;;;;;0.90;0.82;;;;;;;28.17;97.45;101837.19;5053721;28;20444;-75
2022/08/24 10:19:17;;;;;;;1.70;0.80;;;;;;;28.26;94.34;101825.13;5033847;28;20021;-74
2022/08/24 10:22:03;;;;;;;1.95;1.00;;;;;;;28.27;94.17;101822.34;5032370;28;20044;-75
2022/08/24 10:24:37;;;;;;;0.68;0.60;;;;;;;28.50;92.21;101827.72;5035818;28;20037;-75
2022/08/24 10:27:07;;;;;;;2.75;0.88;;;;;;;28.59;90.16;101824.59;5048695;28;20115;-74
2022/08/24 10:29:32;;;;;;;2.92;0.82;;;;;;;28.61;89.52;101828.13;5049068;28;20028;-76
2022/08/24 10:32:13;;;;;;;3.58;0.98;;;;;;;28.46;90.82;101826.06;5051416;28;20564;-75
2022/08/24 10:34:57;;;;;;;1.80;1.25;;;;;;;28.41;92.29;101823.59;5033479;28;20552;-76
2022/08/24 10:37:38;;;;;;;1.20;1.08;;;;;;;28.41;87.79;101818.16;5039281;28;20029;-74
2022/08/24 10:40:04;;;;;;;2.88;1.10;;;;;;;28.52;88.15;101820.41;5049979;28;20059;-75
2022/08/24 10:45:56;;;;;;;3.33;1.02;;;;;;;28.48;86.64;101819.66;5043700;28;20120;-74
2022/08/24 10:48:30;;;;;;;1.63;0.93;;;;;;;28.34;87.86;101827.47;5041174;28;20021;-76
2022/08/24 10:51:11;;;;;;;1.55;0.90;;;;;;;28.25;89.46;101818.81;5045769;28;20029;-76
2022/08/24 10:53:37;;;;;;;1.48;1.08;;;;;;;28.18;90.03;101822.72;5045394;28;20033;-76
2022/08/24 10:56:07;;;;;;;1.65;1.00;;;;;;;28.06;91.66;101818.69;5036415;28;21218;-75
2022/08/24 10:59:05;;;;;;;1.10;1.00;;;;;;;28.14;89.56;101821.09;5033213;28;20124;-71
2022/08/24 11:01:35;;;;;;;4.05;0.85;;;;;;;27.97;89.52;101820.88;5044088;28;20040;-75
2022/08/24 11:04:03;;;;;;;1.15;1.00;;;;;;;28.00;89.06;101815.34;5047044;28;20405;-75
2022/08/24 11:06:42;;;;;;;4.70;1.00;;;;;;;28.10;90.12;101819.47;5041323;28;20051;-74
2022/08/24 11:09:16;;;;;;;7.60;1.20;;;;;;;28.30;86.20;101817.72;5048889;28;20052;-74
2022/08/24 11:11:47;;;;;;;2.65;1.10;;;;;;;28.52;87.20;101820.41;5052677;28;20378;-73
2022/08/24 11:14:23;;;;;;;6.18;1.10;;;;;;;28.79;87.87;101815.63;5042394;28;20032;-74
2022/08/24 11:16:49;;;;;;;2.88;1.05;;;;;;;29.04;85.11;101817.22;5052893;28;20073;-73
2022/08/24 11:19:26;;;;;;;2.92;1.02;;;;;;;29.14;85.13;101813.16;5056352;28;20392;-74
2022/08/24 11:21:54;;;;;;;1.73;1.10;;;;;;;29.40;85.31;101813.78;5054443;28;20078;-72
2022/08/24 11:24:20;;;;;;;6.22;1.00;;;;;;;29.81;84.52;101819.03;5052409;28;20104;-73
2022/08/24 11:26:56;;;;;;;4.97;1.10;;;;;;;30.30;81.59;101815.72;5057700;28;20103;-72
2022/08/24 11:29:44;;;;;;;1.30;0.88;;;;;;;30.72;78.30;101816.28;5051566;28;20029;-73
2022/08/24 11:32:37;;;;;;;0.88;0.88;;;;;;;30.88;71.82;101817.22;5040099;28;20029;-72
2022/08/24 11:35:15;;;;;;;1.38;0.90;;;;;;;30.95;70.17;101812.34;5037186;28;20029;-74
2022/08/24 11:37:40;;;;;;;1.60;0.82;;;;;;;30.76;72.17;101815.16;5041366;28;20528;-73
2022/08/24 11:40:08;;;;;;;1.33;0.88;;;;;;;30.34;73.35;101813.72;5050878;28;20029;-73